createdAt,value
2024-03-26T00:01:13.707Z,98068.54
2024-03-26T00:03:41.251Z,98069.51
2024-03-26T00:06:08.698Z,98072.15
2024-03-26T00:08:36.153Z,98070.11
2024-03-26T00:11:03.820Z,98073.44
2024-03-26T00:13:31.687Z,98075.76
2024-03-26T00:15:59.247Z,98077.09
2024-03-26T00:18:26.629Z,98074.95
2024-03-26T00:20:54.047Z,98073.81
2024-03-26T00:23:21.500Z,98072.94
2024-03-26T00:25:50.289Z,98070.48
2024-03-26T00:28:17.752Z,98070.34
2024-03-26T00:30:45.300Z,98069.78
2024-03-26T00:33:12.959Z,98069.39
2024-03-26T00:35:40.441Z,98072.77
2024-03-26T00:38:08.627Z,98071.55
2024-03-26T00:40:36.042Z,98075.61
2024-03-26T00:43:03.515Z,98073.66
2024-03-26T00:45:31.100Z,98079.33
2024-03-26T00:47:58.613Z,98079.31
2024-03-26T00:50:26.179Z,98082.26
2024-03-26T00:52:53.524Z,98082.60
2024-03-26T00:55:20.945Z,98083.34
2024-03-26T00:57:48.389Z,98083.52
2024-03-26T01:00:16.425Z,98082.63
2024-03-26T01:02:43.991Z,98082.06
2024-03-26T01:05:11.723Z,98079.42
2024-03-26T01:07:39.179Z,98085.79
2024-03-26T01:10:07.737Z,98082.98
2024-03-26T01:12:35.421Z,98083.46
2024-03-26T01:15:03.181Z,98082.53
2024-03-26T01:17:30.654Z,98080.76
2024-03-26T01:19:58.202Z,98081.41
2024-03-26T01:22:25.649Z,98082.85
2024-03-26T01:24:53.208Z,98084.64
2024-03-26T01:27:20.766Z,98083.45
2024-03-26T01:29:48.222Z,98089.08
2024-03-26T01:32:15.678Z,98089.34
2024-03-26T01:34:43.438Z,98089.26
2024-03-26T01:37:10.997Z,98091.16
2024-03-26T01:39:38.453Z,98101.15
2024-03-26T01:42:06.009Z,98106.36
2024-03-26T01:44:34.180Z,98104.62
2024-03-26T01:47:01.634Z,98102.98
2024-03-26T01:49:31.097Z,98100.66
2024-03-26T01:51:58.593Z,98106.95
2024-03-26T01:54:26.151Z,98110.23
2024-03-26T01:56:53.710Z,98115.20
2024-03-26T01:59:21.299Z,98116.38
2024-03-26T02:01:48.720Z,98123.58
2024-03-26T02:04:16.482Z,98126.66
2024-03-26T02:06:44.558Z,98125.08
2024-03-26T02:09:12.012Z,98131.58
2024-03-26T02:11:41.417Z,98131.96
2024-03-26T02:14:08.864Z,98136.95
2024-03-26T02:16:36.523Z,98138.08
2024-03-26T02:19:03.977Z,98137.58
2024-03-26T02:21:31.947Z,98142.64
2024-03-26T02:23:59.503Z,98142.30
2024-03-26T02:26:27.060Z,98145.77
2024-03-26T02:28:57.695Z,98148.13
2024-03-26T02:31:25.262Z,98152.73
2024-03-26T02:33:52.713Z,98155.70
2024-03-26T02:36:20.262Z,98157.48
2024-03-26T02:38:47.878Z,98161.95
2024-03-26T02:41:15.389Z,98162.29
2024-03-26T02:43:43.240Z,98163.33
2024-03-26T02:46:10.695Z,98164.70
2024-03-26T02:48:38.149Z,98166.78
2024-03-26T02:51:05.604Z,98169.89
2024-03-26T02:53:33.470Z,98172.16
2024-03-26T02:56:00.943Z,98175.24
2024-03-26T02:58:28.587Z,98180.11
2024-03-26T03:01:15.803Z,98183.15
2024-03-26T03:03:43.263Z,98186.31
2024-03-26T03:06:10.819Z,98188.71
2024-03-26T03:08:38.679Z,98190.54
2024-03-26T03:11:06.441Z,98199.23
2024-03-26T03:13:33.900Z,98204.89
2024-03-26T03:16:01.370Z,98209.13
2024-03-26T03:18:28.910Z,98213.17
2024-03-26T03:20:56.451Z,98213.27
2024-03-26T03:23:23.891Z,98215.41
2024-03-26T03:25:57.754Z,98223.31
2024-03-26T03:28:25.293Z,98224.70
2024-03-26T03:30:53.252Z,98227.65
2024-03-26T03:33:20.812Z,98227.98
2024-03-26T03:35:51.503Z,98232.83
2024-03-26T03:38:18.999Z,98231.81
2024-03-26T03:40:46.448Z,98231.80
2024-03-26T03:43:14.318Z,98234.66
2024-03-26T03:45:41.878Z,98241.45
2024-03-26T03:48:10.158Z,98241.95
2024-03-26T03:50:37.626Z,98249.30
2024-03-26T03:53:05.373Z,98255.89
2024-03-26T03:55:32.820Z,98262.74
2024-03-26T03:58:00.277Z,98264.48
2024-03-26T04:00:27.745Z,98268.73
2024-03-26T04:02:55.197Z,98267.33
2024-03-26T04:05:22.746Z,98271.47
2024-03-26T04:07:50.205Z,98275.40
2024-03-26T04:10:17.856Z,98278.55
2024-03-26T04:12:45.310Z,98280.10
2024-03-26T04:15:12.872Z,98286.13
2024-03-26T04:17:40.430Z,98284.95
2024-03-26T04:20:08.710Z,98284.52
2024-03-26T04:22:36.159Z,98284.00
2024-03-26T04:25:03.728Z,98289.34
2024-03-26T04:27:31.183Z,98294.05
2024-03-26T04:29:58.627Z,98301.45
2024-03-26T04:32:26.396Z,98305.97
2024-03-26T04:34:54.054Z,98308.23
2024-03-26T04:37:23.467Z,98310.25
2024-03-26T04:39:52.331Z,98313.79
2024-03-26T04:42:20.719Z,98316.70
2024-03-26T04:44:48.598Z,98322.92
2024-03-26T04:47:16.038Z,98320.75
2024-03-26T04:49:43.902Z,98319.76
2024-03-26T04:52:11.456Z,98325.59
2024-03-26T04:54:39.020Z,98326.41
2024-03-26T04:57:06.500Z,98327.77
2024-03-26T04:59:34.029Z,98330.21
2024-03-26T05:02:01.482Z,98332.05
2024-03-26T05:04:29.055Z,98334.73
2024-03-26T05:06:56.494Z,98337.64
2024-03-26T05:09:23.949Z,98338.30
2024-03-26T05:11:52.043Z,98338.66
2024-03-26T05:14:19.679Z,98343.88
2024-03-26T05:16:47.444Z,98343.09
2024-03-26T05:19:15.053Z,98348.48
2024-03-26T05:21:42.420Z,98352.27
2024-03-26T05:24:09.808Z,98356.50
2024-03-26T05:26:37.263Z,98355.61
2024-03-26T05:29:04.815Z,98359.17
2024-03-26T05:31:32.280Z,98362.60
2024-03-26T05:33:59.936Z,98365.55
2024-03-26T05:36:28.619Z,98363.68
2024-03-26T05:38:56.183Z,98367.35
2024-03-26T05:41:23.662Z,98366.58
2024-03-26T05:43:54.280Z,98368.04
2024-03-26T05:46:21.817Z,98369.67
2024-03-26T05:48:49.376Z,98368.18
2024-03-26T05:51:16.831Z,98372.91
2024-03-26T05:53:44.287Z,98375.56
2024-03-26T05:56:12.081Z,98384.55
2024-03-26T05:58:39.474Z,98386.20
2024-03-26T06:01:06.942Z,98391.61
2024-03-26T06:03:34.521Z,98393.31
2024-03-26T06:06:02.197Z,98397.91
2024-03-26T06:08:29.598Z,98402.02
2024-03-26T06:10:57.099Z,98403.37
2024-03-26T06:13:24.754Z,98406.45
2024-03-26T06:15:52.204Z,98404.77
2024-03-26T06:18:19.656Z,98407.41
2024-03-26T06:20:47.525Z,98407.68
2024-03-26T06:23:14.981Z,98406.49
2024-03-26T06:25:43.049Z,98404.48
2024-03-26T06:28:10.568Z,98408.29
2024-03-26T06:30:38.790Z,98417.98
2024-03-26T06:33:06.239Z,98420.80
2024-03-26T06:35:33.690Z,98418.39
2024-03-26T06:38:01.250Z,98420.84
2024-03-26T06:40:28.806Z,98424.05
2024-03-26T06:42:56.265Z,98423.35
2024-03-26T06:45:23.923Z,98429.69
2024-03-26T06:47:52.525Z,98431.61
2024-03-26T06:50:21.095Z,98432.58
2024-03-26T06:52:49.063Z,98435.73
2024-03-26T06:55:17.453Z,98438.71
2024-03-26T06:57:45.300Z,98442.09
2024-03-26T07:00:18.459Z,98446.11
2024-03-26T07:02:52.079Z,98442.70
2024-03-26T07:05:20.265Z,98443.55
2024-03-26T07:07:47.867Z,98445.46
2024-03-26T07:10:15.667Z,98441.10
2024-03-26T07:12:43.652Z,98437.79
2024-03-26T07:15:12.031Z,98441.23
2024-03-26T07:17:39.795Z,98442.09
2024-03-26T07:20:10.642Z,98443.27
2024-03-26T07:22:41.357Z,98439.75
2024-03-26T07:25:10.137Z,98441.80
2024-03-26T07:31:58.027Z,98445.70
2024-03-26T07:34:25.666Z,98441.98
2024-03-26T07:36:53.891Z,98446.59
2024-03-26T07:39:21.459Z,98447.73
2024-03-26T07:41:49.014Z,98447.45
2024-03-26T07:44:19.472Z,98441.98
2024-03-26T07:46:50.088Z,98442.56
2024-03-26T07:49:18.245Z,98449.89
2024-03-26T07:51:46.446Z,98449.77
2024-03-26T07:54:14.117Z,98449.13
2024-03-26T07:56:41.946Z,98451.64
2024-03-26T07:59:29.224Z,98451.31
2024-03-26T08:01:56.808Z,98452.91
2024-03-26T08:04:24.444Z,98458.84
2024-03-26T08:06:52.515Z,98459.58
2024-03-26T08:09:20.113Z,98461.00
2024-03-26T08:11:47.794Z,98463.10
2024-03-26T08:14:15.495Z,98462.08
2024-03-26T08:16:43.153Z,98468.54
2024-03-26T08:19:11.121Z,98470.14
2024-03-26T08:21:38.680Z,98467.73
2024-03-26T08:24:06.547Z,98467.96
2024-03-26T08:26:34.923Z,98468.87
2024-03-26T08:29:02.517Z,98462.14
2024-03-26T08:31:30.691Z,98465.80
2024-03-26T08:33:58.315Z,98466.35
2024-03-26T08:36:25.971Z,98465.15
2024-03-26T08:38:54.256Z,98470.02
2024-03-26T08:41:22.118Z,98468.64
2024-03-26T08:43:52.733Z,98474.93
2024-03-26T08:46:20.458Z,98477.90
2024-03-26T08:48:48.602Z,98476.52
2024-03-26T08:51:16.057Z,98478.25
2024-03-26T08:53:43.520Z,98479.66
2024-03-26T08:56:19.102Z,98475.86
2024-03-26T08:58:53.351Z,98476.89
2024-03-26T09:01:21.014Z,98476.89
2024-03-26T09:03:48.568Z,98470.11
2024-03-26T09:06:16.839Z,98477.08
2024-03-26T09:08:44.426Z,98475.87
2024-03-26T09:11:12.366Z,98476.75
2024-03-26T09:13:41.664Z,98474.66
2024-03-26T09:16:09.442Z,98470.32
2024-03-26T09:18:36.994Z,98469.80
2024-03-26T09:21:05.271Z,98468.40
2024-03-26T09:23:32.826Z,98478.15
2024-03-26T09:26:00.412Z,98473.98
2024-03-26T09:28:29.673Z,98472.05
2024-03-26T09:30:57.163Z,98468.58
2024-03-26T09:33:24.823Z,98468.92
2024-03-26T09:35:53.305Z,98472.20
2024-03-26T09:38:32.166Z,98473.06
2024-03-26T09:41:04.244Z,98465.58
2024-03-26T09:43:32.175Z,98470.98
2024-03-26T09:45:59.772Z,98471.48
2024-03-26T09:48:28.479Z,98475.64
2024-03-26T09:50:56.011Z,98480.86
2024-03-26T09:53:23.754Z,98476.67
2024-03-26T09:55:51.965Z,98474.75
2024-03-26T09:58:19.580Z,98477.35
2024-03-26T10:00:53.245Z,98477.33
2024-03-26T10:03:21.608Z,98479.58
2024-03-26T10:05:49.221Z,98476.80
2024-03-26T10:08:16.915Z,98470.88
2024-03-26T10:10:44.576Z,98472.20
2024-03-26T10:13:13.161Z,98475.29
2024-03-26T10:15:41.084Z,98468.10
2024-03-26T10:18:09.296Z,98471.55
2024-03-26T10:20:38.391Z,98472.04
2024-03-26T10:23:06.874Z,98472.16
2024-03-26T10:25:35.309Z,98472.81
2024-03-26T10:28:03.505Z,98471.74
2024-03-26T10:30:31.185Z,98470.34
2024-03-26T10:33:00.125Z,98476.95
2024-03-26T10:35:31.160Z,98478.86
2024-03-26T10:38:06.777Z,98481.39
2024-03-26T10:40:40.507Z,98478.17
2024-03-26T10:43:10.642Z,98480.77
2024-03-26T10:45:49.523Z,98480.59
2024-03-26T10:48:30.843Z,98479.77
2024-03-26T10:51:00.134Z,98480.39
2024-03-26T10:53:30.925Z,98481.16
2024-03-26T10:55:59.218Z,98475.77
2024-03-26T10:58:27.272Z,98476.23
2024-03-26T11:00:54.805Z,98472.20
2024-03-26T11:03:22.336Z,98476.20
2024-03-26T11:05:49.873Z,98479.67
2024-03-26T11:08:20.325Z,98477.69
2024-03-26T11:11:01.537Z,98478.36
2024-03-26T11:13:29.614Z,98477.83
2024-03-26T11:15:57.176Z,98475.45
2024-03-26T11:18:32.712Z,98477.57
2024-03-26T11:21:04.960Z,98478.42
2024-03-26T11:23:52.865Z,98477.88
2024-03-26T11:26:24.849Z,98474.88
2024-03-26T11:28:52.343Z,98467.81
2024-03-26T11:31:20.462Z,98467.73
2024-03-26T11:33:54.224Z,98463.33
2024-03-26T11:36:21.911Z,98460.66
2024-03-26T11:38:49.622Z,98460.98
2024-03-26T11:41:17.197Z,98453.09
2024-03-26T11:43:44.675Z,98455.79
2024-03-26T11:46:14.151Z,98455.89
2024-03-26T11:48:41.853Z,98457.77
2024-03-26T11:51:09.483Z,98454.45
2024-03-26T11:53:40.137Z,98453.20
2024-03-26T11:56:07.981Z,98454.39
2024-03-26T11:58:38.006Z,98451.36
2024-03-26T12:01:06.985Z,98454.34
2024-03-26T12:03:37.219Z,98461.40
2024-03-26T12:06:06.042Z,98463.95
2024-03-26T12:08:33.610Z,98461.46
2024-03-26T12:11:02.042Z,98465.38
2024-03-26T12:13:29.601Z,98464.61
2024-03-26T12:16:00.708Z,98460.48
2024-03-26T12:18:28.250Z,98458.23
2024-03-26T12:20:57.389Z,98460.65
2024-03-26T12:23:26.580Z,98455.70
2024-03-26T12:25:56.659Z,98449.23
2024-03-26T12:28:24.471Z,98452.81
2024-03-26T12:30:52.955Z,98454.38
2024-03-26T12:33:20.819Z,98451.08
2024-03-26T12:35:48.580Z,98451.09
2024-03-26T12:38:16.084Z,98449.66
2024-03-26T12:40:43.639Z,98448.10
2024-03-26T12:43:11.182Z,98447.54
2024-03-26T12:45:38.812Z,98446.80
2024-03-26T12:48:07.855Z,98455.15
2024-03-26T12:50:35.581Z,98458.99
2024-03-26T12:53:03.231Z,98458.50
2024-03-26T12:55:30.898Z,98463.66
2024-03-26T13:09:24.777Z,98468.02
2024-03-26T13:11:53.469Z,98463.59
2024-03-26T13:14:21.134Z,98465.77
2024-03-26T13:16:48.691Z,98468.83
2024-03-26T13:19:16.249Z,98464.21
2024-03-26T13:21:46.532Z,98464.94
2024-03-26T13:24:14.132Z,98465.64
2024-03-26T13:26:41.713Z,98466.55
2024-03-26T13:29:09.562Z,98471.04
2024-03-26T13:31:37.639Z,98474.73
2024-03-26T13:34:05.508Z,98472.83
2024-03-26T13:36:33.562Z,98468.99
2024-03-26T13:39:01.645Z,98468.62
2024-03-26T13:41:29.297Z,98473.30
2024-03-26T13:43:56.989Z,98475.34
2024-03-26T13:46:24.623Z,98469.05
2024-03-26T13:48:52.195Z,98475.73
2024-03-26T13:51:19.959Z,98476.95
2024-03-26T13:53:47.629Z,98479.79
2024-03-26T13:56:15.265Z,98478.46
2024-03-26T13:58:42.824Z,98476.61
2024-03-26T14:01:10.488Z,98477.05
2024-03-26T14:03:38.040Z,98476.09
2024-03-26T14:06:05.713Z,98477.52
2024-03-26T14:08:34.182Z,98478.72
2024-03-26T14:11:02.378Z,98475.41
2024-03-26T14:13:30.343Z,98482.23
2024-03-26T14:15:57.887Z,98483.98
2024-03-26T14:18:25.343Z,98491.17
2024-03-26T14:20:52.879Z,98485.77
2024-03-26T14:23:20.882Z,98485.23
2024-03-26T14:25:49.856Z,98486.31
2024-03-26T14:28:17.570Z,98481.62
2024-03-26T14:30:45.063Z,98476.75
2024-03-26T14:33:12.691Z,98477.97
2024-03-26T14:35:40.429Z,98477.61
2024-03-26T14:38:08.173Z,98474.82
2024-03-26T14:40:35.825Z,98472.28
2024-03-26T14:43:03.493Z,98472.67
2024-03-26T14:45:32.171Z,98472.21
2024-03-26T14:48:00.545Z,98472.94
2024-03-26T14:50:28.729Z,98476.77
2024-03-26T14:52:56.686Z,98476.23
2024-03-26T14:55:24.864Z,98473.80
2024-03-26T14:57:52.434Z,98477.66
2024-03-26T15:00:20.625Z,98477.19
2024-03-26T15:02:49.835Z,98476.85
2024-03-26T15:05:20.357Z,98479.52
2024-03-26T15:07:52.660Z,98485.11
2024-03-26T15:10:20.280Z,98483.38
2024-03-26T15:12:47.945Z,98484.79
2024-03-26T15:15:16.513Z,98482.73
2024-03-26T15:17:59.231Z,98479.83
2024-03-26T15:20:27.077Z,98476.39
2024-03-26T15:22:54.682Z,98476.59
2024-03-26T15:25:23.314Z,98475.20
2024-03-26T15:28:09.637Z,98476.25
2024-03-26T15:30:55.822Z,98475.23
2024-03-26T15:33:23.678Z,98478.96
2024-03-26T15:35:51.427Z,98486.45
2024-03-26T15:38:21.651Z,98486.20
2024-03-26T15:40:50.139Z,98489.89
2024-03-26T15:43:18.730Z,98483.50
2024-03-26T15:45:48.110Z,98481.27
2024-03-26T15:48:17.120Z,98484.79
2024-03-26T15:50:44.763Z,98483.77
2024-03-26T15:53:12.293Z,98483.85
2024-03-26T15:55:40.096Z,98486.76
2024-03-26T15:58:07.643Z,98487.41
2024-03-26T16:00:35.724Z,98487.91
2024-03-26T16:03:03.431Z,98486.20
2024-03-26T16:05:31.548Z,98489.55
2024-03-26T16:07:59.145Z,98491.66
2024-03-26T16:12:58.496Z,98492.48
2024-03-26T16:15:26.086Z,98495.01
2024-03-26T16:17:54.165Z,98495.50
2024-03-26T16:20:21.642Z,98495.71
2024-03-26T16:22:49.176Z,98497.11
2024-03-26T16:25:16.752Z,98498.13
2024-03-26T16:27:45.793Z,98498.23
2024-03-26T16:30:13.641Z,98502.52
2024-03-26T16:32:41.254Z,98506.92
2024-03-26T16:35:09.725Z,98506.77
2024-03-26T16:37:37.174Z,98511.52
2024-03-26T16:40:07.916Z,98510.31
2024-03-26T16:42:35.879Z,98505.45
2024-03-26T16:45:04.093Z,98507.02
2024-03-26T16:47:31.710Z,98507.88
2024-03-26T16:49:59.302Z,98510.84
2024-03-26T16:52:27.354Z,98517.25
2024-03-26T16:54:55.015Z,98524.19
2024-03-26T16:57:22.560Z,98520.16
2024-03-26T16:59:50.116Z,98520.30
2024-03-26T17:02:17.983Z,98525.14
2024-03-26T17:04:47.287Z,98522.48
2024-03-26T17:07:15.270Z,98521.59
2024-03-26T17:09:42.735Z,98525.02
2024-03-26T17:12:10.333Z,98527.20
2024-03-26T17:14:38.256Z,98526.10
2024-03-26T17:17:13.443Z,98529.20
2024-03-26T17:19:42.179Z,98532.98
2024-03-26T17:22:10.561Z,98538.30
2024-03-26T17:24:37.955Z,98539.11
2024-03-26T17:27:05.644Z,98542.55
2024-03-26T17:29:33.592Z,98542.70
2024-03-26T17:32:01.266Z,98547.70
2024-03-26T17:34:29.038Z,98551.48
2024-03-26T17:36:56.800Z,98550.60
2024-03-26T17:39:25.216Z,98553.48
2024-03-26T17:41:52.838Z,98554.82
2024-03-26T17:44:20.716Z,98555.47
2024-03-26T17:46:49.080Z,98551.43
2024-03-26T17:49:16.843Z,98551.91
2024-03-26T17:51:44.521Z,98556.18
2024-03-26T17:54:12.276Z,98558.05
2024-03-26T17:56:39.825Z,98560.73
2024-03-26T17:59:07.689Z,98557.57
2024-03-26T18:01:35.890Z,98557.51
2024-03-26T18:04:03.423Z,98557.42
2024-03-26T18:06:30.899Z,98556.48
2024-03-26T18:08:58.746Z,98555.20
2024-03-26T18:11:26.401Z,98555.98
2024-03-26T18:13:53.956Z,98554.34
2024-03-26T18:16:21.419Z,98558.59
2024-03-26T18:18:49.690Z,98561.80
2024-03-26T18:21:17.450Z,98564.46
2024-03-26T18:23:45.044Z,98566.98
2024-03-26T18:26:12.824Z,98568.48
2024-03-26T18:28:41.192Z,98571.85
2024-03-26T18:31:10.769Z,98569.55
2024-03-26T18:33:38.499Z,98566.77
2024-03-26T18:36:06.387Z,98565.83
2024-03-26T18:38:34.977Z,98569.94
2024-03-26T18:41:06.780Z,98574.77
2024-03-26T18:43:38.684Z,98582.69
2024-03-26T18:46:12.776Z,98583.58
2024-03-26T18:48:40.517Z,98584.24
2024-03-26T18:51:08.125Z,98581.10
2024-03-26T18:53:37.084Z,98581.77
2024-03-26T18:56:12.762Z,98585.73
2024-03-26T18:58:41.032Z,98583.25
2024-03-26T19:01:13.197Z,98585.96
2024-03-26T19:03:41.062Z,98586.12
2024-03-26T19:06:09.233Z,98586.93
2024-03-26T19:08:36.896Z,98587.05
2024-03-26T19:11:05.067Z,98581.92
2024-03-26T19:13:33.236Z,98586.98
2024-03-26T19:16:02.232Z,98588.59
2024-03-26T19:18:32.653Z,98586.84
2024-03-26T19:21:01.748Z,98584.27
2024-03-26T19:23:32.232Z,98574.67
2024-03-26T19:26:05.938Z,98569.95
2024-03-26T19:28:33.845Z,98576.14
2024-03-26T19:31:04.176Z,98579.23
2024-03-26T19:33:31.826Z,98577.82
2024-03-26T19:36:07.067Z,98579.86
2024-03-26T19:38:35.134Z,98577.23
2024-03-26T19:41:03.508Z,98583.20
2024-03-26T19:43:32.100Z,98586.89
2024-03-26T19:46:04.947Z,98593.94
2024-03-26T19:48:32.865Z,98592.46
2024-03-26T19:51:01.006Z,98590.95
2024-03-26T19:53:28.980Z,98592.51
2024-03-26T19:55:58.896Z,98592.77
2024-03-26T19:58:26.426Z,98592.55
2024-03-26T20:01:03.864Z,98594.39
2024-03-26T20:03:31.440Z,98595.95
2024-03-26T20:06:00.666Z,98592.83
2024-03-26T20:08:28.565Z,98591.35
2024-03-26T20:10:56.837Z,98591.70
2024-03-26T20:13:25.210Z,98591.89
2024-03-26T20:15:53.079Z,98592.89
2024-03-26T20:18:20.746Z,98589.98
2024-03-26T20:20:57.816Z,98591.80
2024-03-26T20:23:26.295Z,98591.30
2024-03-26T20:26:08.472Z,98594.06
2024-03-26T20:28:36.371Z,98590.70
2024-03-26T20:31:12.828Z,98588.90
2024-03-26T20:33:40.648Z,98587.27
2024-03-26T20:36:08.658Z,98591.48
2024-03-26T20:38:36.322Z,98593.14
2024-03-26T20:41:05.172Z,98590.84
2024-03-26T20:43:33.379Z,98592.64
2024-03-26T20:46:02.165Z,98595.46
2024-03-26T20:48:30.163Z,98596.14
2024-03-26T20:50:58.413Z,98601.83
2024-03-26T20:53:26.792Z,98602.23
2024-03-26T20:55:54.344Z,98598.86
2024-03-26T20:58:21.902Z,98593.02
2024-03-26T21:00:49.460Z,98594.98
2024-03-26T21:03:17.139Z,98592.41
2024-03-26T21:05:44.781Z,98595.08
2024-03-26T21:08:12.347Z,98600.26
2024-03-26T21:10:39.941Z,98604.73
2024-03-26T21:13:07.730Z,98598.94
2024-03-26T21:15:35.222Z,98596.54
2024-03-26T21:18:11.590Z,98596.27
2024-03-26T21:20:47.431Z,98597.25
2024-03-26T21:23:14.987Z,98599.65
2024-03-26T21:25:42.647Z,98600.33
2024-03-26T21:28:10.214Z,98603.84
2024-03-26T21:30:37.843Z,98604.34
2024-03-26T21:33:08.803Z,98602.15
2024-03-26T21:35:39.433Z,98602.82
2024-03-26T21:38:06.988Z,98599.83
2024-03-26T21:40:34.631Z,98601.54
2024-03-26T21:43:03.026Z,98598.90
2024-03-26T21:45:30.536Z,98602.50
2024-03-26T21:47:58.243Z,98606.32
2024-03-26T21:50:25.907Z,98607.94
2024-03-26T21:52:53.464Z,98606.37
2024-03-26T21:55:21.027Z,98603.24
2024-03-26T21:57:49.193Z,98601.20
2024-03-26T22:00:18.472Z,98604.64
2024-03-26T22:02:48.200Z,98605.89
2024-03-26T22:05:15.862Z,98606.44
2024-03-26T22:07:43.539Z,98606.94
2024-03-26T22:10:11.091Z,98606.45
2024-03-26T22:12:38.639Z,98609.92
2024-03-26T22:15:07.015Z,98616.50
2024-03-26T22:17:34.488Z,98617.41
2024-03-26T22:20:03.767Z,98613.47
2024-03-26T22:22:31.222Z,98614.34
2024-03-26T22:24:58.797Z,98612.97
2024-03-26T22:27:26.354Z,98613.13
2024-03-26T22:29:53.892Z,98608.79
2024-03-26T22:32:21.322Z,98612.89
2024-03-26T22:34:48.764Z,98613.41
2024-03-26T22:37:16.261Z,98607.14
2024-03-26T22:39:43.715Z,98607.98
2024-03-26T22:42:11.174Z,98606.25
2024-03-26T22:44:39.244Z,98608.81
2024-03-26T22:47:07.616Z,98614.64
2024-03-26T22:49:35.072Z,98615.45
2024-03-26T22:52:02.536Z,98615.05
2024-03-26T22:54:30.188Z,98622.59
2024-03-26T22:56:57.748Z,98627.38
2024-03-26T22:59:25.406Z,98630.63
2024-03-26T23:01:53.171Z,98629.85
2024-03-26T23:04:20.625Z,98634.66
2024-03-26T23:06:48.077Z,98635.32
2024-03-26T23:09:15.540Z,98633.92
2024-03-26T23:11:42.989Z,98636.80
2024-03-26T23:14:10.656Z,98632.77
2024-03-26T23:16:38.103Z,98629.80
2024-03-26T23:19:09.281Z,98629.08
2024-03-26T23:21:37.027Z,98628.16
2024-03-26T23:24:05.498Z,98625.05
2024-03-26T23:26:32.948Z,98626.11
2024-03-26T23:29:00.511Z,98622.50
2024-03-26T23:31:28.469Z,98623.35
2024-03-26T23:33:56.026Z,98628.86
2024-03-26T23:36:23.490Z,98629.86
2024-03-26T23:38:50.941Z,98632.59
2024-03-26T23:41:18.367Z,98631.76
2024-03-26T23:43:45.851Z,98632.32
2024-03-26T23:46:13.264Z,98635.70
2024-03-26T23:48:40.760Z,98635.45
2024-03-26T23:51:09.550Z,98632.35
2024-03-26T23:53:37.104Z,98630.96
2024-03-26T23:56:05.459Z,98631.28
2024-03-26T23:58:33.143Z,98628.85
